Welcome in flight space of Fly For Fun flying school
Zkoušky z teorie PPL(A), LAPL(A) NEBO ULL? Zkoušky z teorie PPL(A), LAPL(A) NEBO ULL?
Webcam - LKSZ Webcam - LKSZ More

For pilots

UTC
LOC
METAR/TAF
METAR LKPR 272330Z 35006KT 8000 OVC006 M01/M02 Q1021 TEMPO 5000 BR OVC004=
TAF LKPR 272300Z 2800/2906 36007KT 9999 OVC010TEMPO 2800/2814 36014KT 7000 -SN BKN004PROB30 TEMPO 2800/2814 3000 -FZDZ BRBECMG 2814/2816 9999 SCT023=
Sunrise, sunset and civil twilight for LKSZ

Weather

Navigation services

Other important links